sensor_id;sensor_type;location;lat;lon;timestamp;temperature;humidity
42141;DHT22;27809;51.864;5.646;2023-06-22T00:01:58;17.60;99.90
42141;DHT22;27809;51.864;5.646;2023-06-22T00:04:23;17.60;99.90
42141;DHT22;27809;51.864;5.646;2023-06-22T00:06:49;17.60;99.90
42141;DHT22;27809;51.864;5.646;2023-06-22T00:09:14;17.70;99.90
42141;DHT22;27809;51.864;5.646;2023-06-22T00:11:40;17.70;99.90
42141;DHT22;27809;51.864;5.646;2023-06-22T00:14:05;17.60;99.90
42141;DHT22;27809;51.864;5.646;2023-06-22T00:16:34;17.60;99.90
42141;DHT22;27809;51.864;5.646;2023-06-22T00:19:00;17.60;99.90
42141;DHT22;27809;51.864;5.646;2023-06-22T00:21:26;17.50;99.90
42141;DHT22;27809;51.864;5.646;2023-06-22T00:23:52;17.50;99.90
42141;DHT22;27809;51.864;5.646;2023-06-22T00:26:18;17.30;99.90
42141;DHT22;27809;51.864;5.646;2023-06-22T00:28:43;17.30;99.90
42141;DHT22;27809;51.864;5.646;2023-06-22T00:31:09;17.30;99.90
42141;DHT22;27809;51.864;5.646;2023-06-22T00:33:34;17.20;99.90
42141;DHT22;27809;51.864;5.646;2023-06-22T00:36:00;17.20;99.90
42141;DHT22;27809;51.864;5.646;2023-06-22T00:38:25;17.10;99.90
42141;DHT22;27809;51.864;5.646;2023-06-22T00:40:51;17.20;99.90
42141;DHT22;27809;51.864;5.646;2023-06-22T00:43:17;17.20;99.90
42141;DHT22;27809;51.864;5.646;2023-06-22T00:45:42;17.30;99.90
42141;DHT22;27809;51.864;5.646;2023-06-22T00:48:08;17.20;99.90
42141;DHT22;27809;51.864;5.646;2023-06-22T00:50:34;17.30;99.90
42141;DHT22;27809;51.864;5.646;2023-06-22T00:53:07;17.20;99.90
42141;DHT22;27809;51.864;5.646;2023-06-22T00:55:44;17.20;99.90
42141;DHT22;27809;51.864;5.646;2023-06-22T00:58:11;17.30;99.90
42141;DHT22;27809;51.864;5.646;2023-06-22T01:00:38;17.20;99.90
42141;DHT22;27809;51.864;5.646;2023-06-22T01:03:04;17.10;99.90
42141;DHT22;27809;51.864;5.646;2023-06-22T01:05:34;17.00;99.90
42141;DHT22;27809;51.864;5.646;2023-06-22T01:11:12;16.80;99.90
42141;DHT22;27809;51.864;5.646;2023-06-22T01:13:48;16.80;99.90
42141;DHT22;27809;51.864;5.646;2023-06-22T01:16:24;16.80;99.90
42141;DHT22;27809;51.864;5.646;2023-06-22T01:18:52;16.80;99.90
42141;DHT22;27809;51.864;5.646;2023-06-22T01:21:21;16.70;99.90
42141;DHT22;27809;51.864;5.646;2023-06-22T01:24:18;16.70;99.90
42141;DHT22;27809;51.864;5.646;2023-06-22T01:29:32;16.90;99.90
42141;DHT22;27809;51.864;5.646;2023-06-22T01:31:59;16.90;99.90
42141;DHT22;27809;51.864;5.646;2023-06-22T01:34:25;16.70;99.90
42141;DHT22;27809;51.864;5.646;2023-06-22T01:36:52;16.70;99.90
42141;DHT22;27809;51.864;5.646;2023-06-22T01:39:18;16.60;99.90
42141;DHT22;27809;51.864;5.646;2023-06-22T01:41:44;16.50;99.90
42141;DHT22;27809;51.864;5.646;2023-06-22T01:44:10;16.60;99.90
42141;DHT22;27809;51.864;5.646;2023-06-22T01:46:38;16.60;99.90
42141;DHT22;27809;51.864;5.646;2023-06-22T01:49:05;16.70;99.90
42141;DHT22;27809;51.864;5.646;2023-06-22T01:51:31;16.60;99.90
42141;DHT22;27809;51.864;5.646;2023-06-22T01:53:57;16.70;99.90
42141;DHT22;27809;51.864;5.646;2023-06-22T01:56:22;16.50;99.90
42141;DHT22;27809;51.864;5.646;2023-06-22T01:59:00;16.50;99.90
42141;DHT22;27809;51.864;5.646;2023-06-22T02:01:32;16.50;99.90
42141;DHT22;27809;51.864;5.646;2023-06-22T02:04:36;16.50;99.90
42141;DHT22;27809;51.864;5.646;2023-06-22T02:07:06;16.60;99.90
42141;DHT22;27809;51.864;5.646;2023-06-22T02:09:35;16.50;99.90
42141;DHT22;27809;51.864;5.646;2023-06-22T02:12:04;16.50;99.90
42141;DHT22;27809;51.864;5.646;2023-06-22T02:14:30;16.50;99.90
42141;DHT22;27809;51.864;5.646;2023-06-22T02:16:56;16.40;99.90
42141;DHT22;27809;51.864;5.646;2023-06-22T02:19:24;16.30;99.90
42141;DHT22;27809;51.864;5.646;2023-06-22T02:21:51;16.30;99.90
42141;DHT22;27809;51.864;5.646;2023-06-22T02:24:16;16.30;99.90
42141;DHT22;27809;51.864;5.646;2023-06-22T02:26:43;16.30;99.90
42141;DHT22;27809;51.864;5.646;2023-06-22T02:29:10;16.30;99.90
42141;DHT22;27809;51.864;5.646;2023-06-22T02:31:36;16.30;99.90
42141;DHT22;27809;51.864;5.646;2023-06-22T02:34:01;16.30;99.90
42141;DHT22;27809;51.864;5.646;2023-06-22T02:36:27;16.30;99.90
42141;DHT22;27809;51.864;5.646;2023-06-22T02:38:56;16.40;99.90
42141;DHT22;27809;51.864;5.646;2023-06-22T02:41:24;16.30;99.90
42141;DHT22;27809;51.864;5.646;2023-06-22T02:43:50;16.30;99.90
42141;DHT22;27809;51.864;5.646;2023-06-22T02:46:15;16.20;99.90
42141;DHT22;27809;51.864;5.646;2023-06-22T02:48:41;16.10;99.90
42141;DHT22;27809;51.864;5.646;2023-06-22T02:51:07;16.00;99.90
42141;DHT22;27809;51.864;5.646;2023-06-22T02:53:32;16.00;99.90
42141;DHT22;27809;51.864;5.646;2023-06-22T02:55:58;16.00;99.90
42141;DHT22;27809;51.864;5.646;2023-06-22T02:58:23;15.90;99.90
42141;DHT22;27809;51.864;5.646;2023-06-22T03:00:49;15.90;99.90
42141;DHT22;27809;51.864;5.646;2023-06-22T03:03:19;16.00;99.90
42141;DHT22;27809;51.864;5.646;2023-06-22T03:05:45;16.10;99.90
42141;DHT22;27809;51.864;5.646;2023-06-22T03:08:11;16.10;99.90
42141;DHT22;27809;51.864;5.646;2023-06-22T03:10:36;16.10;99.90
42141;DHT22;27809;51.864;5.646;2023-06-22T03:13:02;16.10;99.90
42141;DHT22;27809;51.864;5.646;2023-06-22T03:15:28;16.10;99.90
42141;DHT22;27809;51.864;5.646;2023-06-22T03:17:55;16.10;99.90
42141;DHT22;27809;51.864;5.646;2023-06-22T03:20:20;16.10;99.90
42141;DHT22;27809;51.864;5.646;2023-06-22T03:22:46;16.00;99.90
42141;DHT22;27809;51.864;5.646;2023-06-22T03:25:13;16.00;99.90
42141;DHT22;27809;51.864;5.646;2023-06-22T03:27:41;15.90;99.90
42141;DHT22;27809;51.864;5.646;2023-06-22T03:30:08;15.90;99.90
42141;DHT22;27809;51.864;5.646;2023-06-22T03:32:34;15.80;99.90
42141;DHT22;27809;51.864;5.646;2023-06-22T03:34:59;15.80;99.90
42141;DHT22;27809;51.864;5.646;2023-06-22T03:37:26;15.80;99.90
42141;DHT22;27809;51.864;5.646;2023-06-22T03:39:52;15.70;99.90
42141;DHT22;27809;51.864;5.646;2023-06-22T03:42:17;15.70;99.90
42141;DHT22;27809;51.864;5.646;2023-06-22T03:44:43;15.70;99.90
42141;DHT22;27809;51.864;5.646;2023-06-22T03:47:08;15.70;99.90
42141;DHT22;27809;51.864;5.646;2023-06-22T03:49:34;15.60;99.90
42141;DHT22;27809;51.864;5.646;2023-06-22T03:52:01;15.60;99.90
42141;DHT22;27809;51.864;5.646;2023-06-22T03:54:28;15.70;99.90
42141;DHT22;27809;51.864;5.646;2023-06-22T03:56:54;15.70;99.90
42141;DHT22;27809;51.864;5.646;2023-06-22T03:59:19;15.70;99.90
42141;DHT22;27809;51.864;5.646;2023-06-22T04:01:45;15.70;99.90
42141;DHT22;27809;51.864;5.646;2023-06-22T04:04:11;15.80;99.90
42141;DHT22;27809;51.864;5.646;2023-06-22T04:06:38;15.70;99.90
42141;DHT22;27809;51.864;5.646;2023-06-22T04:09:03;15.70;99.90
42141;DHT22;27809;51.864;5.646;2023-06-22T04:11:29;15.80;99.90
42141;DHT22;27809;51.864;5.646;2023-06-22T04:13:54;15.80;99.90
42141;DHT22;27809;51.864;5.646;2023-06-22T04:16:20;15.80;99.90
42141;DHT22;27809;51.864;5.646;2023-06-22T04:18:46;15.90;99.90
42141;DHT22;27809;51.864;5.646;2023-06-22T04:21:12;15.90;99.90
42141;DHT22;27809;51.864;5.646;2023-06-22T04:23:38;16.00;99.90
42141;DHT22;27809;51.864;5.646;2023-06-22T04:26:04;16.10;99.90
42141;DHT22;27809;51.864;5.646;2023-06-22T04:28:29;16.10;99.90
42141;DHT22;27809;51.864;5.646;2023-06-22T04:31:01;16.30;99.90
42141;DHT22;27809;51.864;5.646;2023-06-22T04:33:27;16.40;99.90
42141;DHT22;27809;51.864;5.646;2023-06-22T04:35:54;16.60;99.90
42141;DHT22;27809;51.864;5.646;2023-06-22T04:38:22;16.60;99.90
42141;DHT22;27809;51.864;5.646;2023-06-22T04:40:48;16.60;99.90
42141;DHT22;27809;51.864;5.646;2023-06-22T04:43:14;16.70;99.90
42141;DHT22;27809;51.864;5.646;2023-06-22T04:45:39;16.80;99.90
42141;DHT22;27809;51.864;5.646;2023-06-22T04:48:05;16.80;99.90
42141;DHT22;27809;51.864;5.646;2023-06-22T04:50:31;16.80;99.90
42141;DHT22;27809;51.864;5.646;2023-06-22T04:52:57;16.80;99.90
42141;DHT22;27809;51.864;5.646;2023-06-22T04:55:23;16.90;99.90
42141;DHT22;27809;51.864;5.646;2023-06-22T04:57:50;17.00;99.90
42141;DHT22;27809;51.864;5.646;2023-06-22T05:00:17;17.10;99.90
42141;DHT22;27809;51.864;5.646;2023-06-22T05:02:45;17.20;99.90
42141;DHT22;27809;51.864;5.646;2023-06-22T05:05:12;17.40;99.90
42141;DHT22;27809;51.864;5.646;2023-06-22T05:07:40;17.50;99.90
42141;DHT22;27809;51.864;5.646;2023-06-22T05:10:09;17.70;99.90
42141;DHT22;27809;51.864;5.646;2023-06-22T05:12:35;17.70;99.90
42141;DHT22;27809;51.864;5.646;2023-06-22T05:15:01;17.80;99.90
42141;DHT22;27809;51.864;5.646;2023-06-22T05:17:27;18.00;99.90
42141;DHT22;27809;51.864;5.646;2023-06-22T05:19:52;18.00;99.90
42141;DHT22;27809;51.864;5.646;2023-06-22T05:22:18;18.10;99.90
42141;DHT22;27809;51.864;5.646;2023-06-22T05:24:44;18.30;99.90
42141;DHT22;27809;51.864;5.646;2023-06-22T05:27:10;18.40;99.90
42141;DHT22;27809;51.864;5.646;2023-06-22T05:29:36;18.40;99.90
42141;DHT22;27809;51.864;5.646;2023-06-22T05:32:02;18.60;99.90
42141;DHT22;27809;51.864;5.646;2023-06-22T05:34:28;18.70;99.90
42141;DHT22;27809;51.864;5.646;2023-06-22T05:36:53;18.90;99.90
42141;DHT22;27809;51.864;5.646;2023-06-22T05:39:19;19.00;99.90
42141;DHT22;27809;51.864;5.646;2023-06-22T05:41:45;19.00;99.90
42141;DHT22;27809;51.864;5.646;2023-06-22T05:44:11;19.00;99.90
42141;DHT22;27809;51.864;5.646;2023-06-22T05:46:40;19.10;99.90
42141;DHT22;27809;51.864;5.646;2023-06-22T05:49:05;19.10;99.90
42141;DHT22;27809;51.864;5.646;2023-06-22T05:51:31;19.30;99.90
42141;DHT22;27809;51.864;5.646;2023-06-22T05:53:56;19.50;99.90
42141;DHT22;27809;51.864;5.646;2023-06-22T05:56:22;19.60;99.90
42141;DHT22;27809;51.864;5.646;2023-06-22T05:58:47;19.70;99.90
42141;DHT22;27809;51.864;5.646;2023-06-22T06:01:13;19.90;99.90
42141;DHT22;27809;51.864;5.646;2023-06-22T06:03:40;20.00;99.90
42141;DHT22;27809;51.864;5.646;2023-06-22T06:06:07;20.10;99.90
42141;DHT22;27809;51.864;5.646;2023-06-22T06:08:33;20.20;99.90
42141;DHT22;27809;51.864;5.646;2023-06-22T06:10:58;20.20;99.90
42141;DHT22;27809;51.864;5.646;2023-06-22T06:13:24;20.40;99.90
42141;DHT22;27809;51.864;5.646;2023-06-22T06:15:49;20.50;99.90
42141;DHT22;27809;51.864;5.646;2023-06-22T06:18:17;20.60;99.90
42141;DHT22;27809;51.864;5.646;2023-06-22T06:20:42;20.70;99.90
42141;DHT22;27809;51.864;5.646;2023-06-22T06:23:08;20.80;99.90
42141;DHT22;27809;51.864;5.646;2023-06-22T06:25:33;20.90;99.90
42141;DHT22;27809;51.864;5.646;2023-06-22T06:27:59;21.00;99.90
42141;DHT22;27809;51.864;5.646;2023-06-22T06:30:24;21.10;99.90
42141;DHT22;27809;51.864;5.646;2023-06-22T06:32:50;21.10;99.90
42141;DHT22;27809;51.864;5.646;2023-06-22T06:35:16;21.10;99.90
42141;DHT22;27809;51.864;5.646;2023-06-22T06:37:43;21.20;99.90
42141;DHT22;27809;51.864;5.646;2023-06-22T06:40:10;21.30;99.90
42141;DHT22;27809;51.864;5.646;2023-06-22T06:42:38;21.30;98.40
42141;DHT22;27809;51.864;5.646;2023-06-22T06:45:06;21.40;99.00
42141;DHT22;27809;51.864;5.646;2023-06-22T06:47:32;21.40;97.20
42141;DHT22;27809;51.864;5.646;2023-06-22T06:49:57;21.50;96.50
42141;DHT22;27809;51.864;5.646;2023-06-22T06:52:23;21.60;92.40
42141;DHT22;27809;51.864;5.646;2023-06-22T06:54:48;21.70;96.40
42141;DHT22;27809;51.864;5.646;2023-06-22T06:57:14;21.70;93.00
42141;DHT22;27809;51.864;5.646;2023-06-22T06:59:40;21.80;90.90
42141;DHT22;27809;51.864;5.646;2023-06-22T07:02:06;21.70;90.50
42141;DHT22;27809;51.864;5.646;2023-06-22T07:04:32;21.70;91.30
42141;DHT22;27809;51.864;5.646;2023-06-22T07:07:00;21.60;90.40
42141;DHT22;27809;51.864;5.646;2023-06-22T07:09:26;21.70;90.40
42141;DHT22;27809;51.864;5.646;2023-06-22T07:11:52;21.80;87.40
42141;DHT22;27809;51.864;5.646;2023-06-22T07:14:17;21.80;85.80
42141;DHT22;27809;51.864;5.646;2023-06-22T07:16:43;21.80;83.90
42141;DHT22;27809;51.864;5.646;2023-06-22T07:19:11;21.80;77.90
42141;DHT22;27809;51.864;5.646;2023-06-22T07:21:37;22.10;85.60
42141;DHT22;27809;51.864;5.646;2023-06-22T07:24:02;22.30;70.60
42141;DHT22;27809;51.864;5.646;2023-06-22T07:26:28;22.40;68.90
42141;DHT22;27809;51.864;5.646;2023-06-22T07:28:53;22.50;74.70
42141;DHT22;27809;51.864;5.646;2023-06-22T07:31:19;22.40;69.10
42141;DHT22;27809;51.864;5.646;2023-06-22T07:33:45;22.40;67.00
42141;DHT22;27809;51.864;5.646;2023-06-22T07:36:10;22.60;71.60
42141;DHT22;27809;51.864;5.646;2023-06-22T07:38:36;22.80;59.10
42141;DHT22;27809;51.864;5.646;2023-06-22T07:41:02;22.70;49.70
42141;DHT22;27809;51.864;5.646;2023-06-22T07:43:30;22.70;50.50
42141;DHT22;27809;51.864;5.646;2023-06-22T07:45:58;22.70;57.50
42141;DHT22;27809;51.864;5.646;2023-06-22T07:48:23;22.70;50.70
42141;DHT22;27809;51.864;5.646;2023-06-22T07:50:49;22.90;54.10
42141;DHT22;27809;51.864;5.646;2023-06-22T07:53:15;23.00;48.90
42141;DHT22;27809;51.864;5.646;2023-06-22T07:55:40;23.10;47.50
42141;DHT22;27809;51.864;5.646;2023-06-22T07:58:06;23.00;32.60
42141;DHT22;27809;51.864;5.646;2023-06-22T08:00:34;23.00;34.30
42141;DHT22;27809;51.864;5.646;2023-06-22T08:02:59;23.00;39.40
42141;DHT22;27809;51.864;5.646;2023-06-22T08:05:25;23.00;28.60
42141;DHT22;27809;51.864;5.646;2023-06-22T08:07:50;23.10;32.40
42141;DHT22;27809;51.864;5.646;2023-06-22T08:10:16;23.20;27.80
42141;DHT22;27809;51.864;5.646;2023-06-22T08:12:42;23.40;25.60
42141;DHT22;27809;51.864;5.646;2023-06-22T08:15:08;23.40;21.70
42141;DHT22;27809;51.864;5.646;2023-06-22T08:17:36;23.50;22.00
42141;DHT22;27809;51.864;5.646;2023-06-22T08:20:01;23.60;19.40
42141;DHT22;27809;51.864;5.646;2023-06-22T08:22:30;23.80;25.40
42141;DHT22;27809;51.864;5.646;2023-06-22T08:24:58;23.90;19.20
42141;DHT22;27809;51.864;5.646;2023-06-22T08:27:24;23.90;18.90
42141;DHT22;27809;51.864;5.646;2023-06-22T08:29:49;23.80;15.90
42141;DHT22;27809;51.864;5.646;2023-06-22T08:32:15;23.70;14.80
42141;DHT22;27809;51.864;5.646;2023-06-22T08:34:41;23.80;16.30
42141;DHT22;27809;51.864;5.646;2023-06-22T08:37:08;23.70;11.20
42141;DHT22;27809;51.864;5.646;2023-06-22T08:39:34;23.70;8.10
42141;DHT22;27809;51.864;5.646;2023-06-22T08:42:00;23.80;6.40
42141;DHT22;27809;51.864;5.646;2023-06-22T08:44:25;23.70;6.50
42141;DHT22;27809;51.864;5.646;2023-06-22T08:46:51;23.80;6.30
42141;DHT22;27809;51.864;5.646;2023-06-22T08:49:16;23.90;10.70
42141;DHT22;27809;51.864;5.646;2023-06-22T08:51:42;24.00;4.90
42141;DHT22;27809;51.864;5.646;2023-06-22T08:54:09;24.10;7.20
42141;DHT22;27809;51.864;5.646;2023-06-22T08:56:35;24.20;10.90
42141;DHT22;27809;51.864;5.646;2023-06-22T08:59:01;24.30;8.20
42141;DHT22;27809;51.864;5.646;2023-06-22T09:01:27;24.40;4.70
42141;DHT22;27809;51.864;5.646;2023-06-22T09:03:52;24.30;2.00
42141;DHT22;27809;51.864;5.646;2023-06-22T09:06:23;24.20;4.50
42141;DHT22;27809;51.864;5.646;2023-06-22T09:08:48;24.10;4.40
42141;DHT22;27809;51.864;5.646;2023-06-22T09:11:14;24.10;3.40
42141;DHT22;27809;51.864;5.646;2023-06-22T09:13:40;24.00;1.00
42141;DHT22;27809;51.864;5.646;2023-06-22T09:16:05;24.00;1.00
42141;DHT22;27809;51.864;5.646;2023-06-22T09:18:32;24.00;1.00
42141;DHT22;27809;51.864;5.646;2023-06-22T09:20:57;24.00;1.00
42141;DHT22;27809;51.864;5.646;2023-06-22T09:23:23;23.90;1.00
42141;DHT22;27809;51.864;5.646;2023-06-22T09:25:48;24.10;1.00
42141;DHT22;27809;51.864;5.646;2023-06-22T09:28:14;23.90;1.00
42141;DHT22;27809;51.864;5.646;2023-06-22T09:30:42;23.80;1.00
42141;DHT22;27809;51.864;5.646;2023-06-22T09:33:08;23.80;1.00
42141;DHT22;27809;51.864;5.646;2023-06-22T09:35:33;23.80;1.00
42141;DHT22;27809;51.864;5.646;2023-06-22T09:37:59;23.80;1.00
42141;DHT22;27809;51.864;5.646;2023-06-22T09:40:25;23.80;1.00
42141;DHT22;27809;51.864;5.646;2023-06-22T09:42:50;23.80;1.00
42141;DHT22;27809;51.864;5.646;2023-06-22T09:45:16;23.80;1.00
42141;DHT22;27809;51.864;5.646;2023-06-22T09:47:41;23.80;1.00
42141;DHT22;27809;51.864;5.646;2023-06-22T09:50:08;23.80;1.00
42141;DHT22;27809;51.864;5.646;2023-06-22T09:52:34;23.80;1.00
42141;DHT22;27809;51.864;5.646;2023-06-22T09:54:59;23.60;1.00
42141;DHT22;27809;51.864;5.646;2023-06-22T09:57:25;23.70;1.00
42141;DHT22;27809;51.864;5.646;2023-06-22T09:59:50;23.70;3.00
42141;DHT22;27809;51.864;5.646;2023-06-22T10:02:16;23.60;1.00
42141;DHT22;27809;51.864;5.646;2023-06-22T10:04:42;23.60;1.00
42141;DHT22;27809;51.864;5.646;2023-06-22T10:07:08;23.50;1.00
42141;DHT22;27809;51.864;5.646;2023-06-22T10:09:33;23.50;1.90
42141;DHT22;27809;51.864;5.646;2023-06-22T10:11:59;23.50;1.00
42141;DHT22;27809;51.864;5.646;2023-06-22T10:14:24;23.40;1.30
42141;DHT22;27809;51.864;5.646;2023-06-22T10:16:51;23.40;1.00
42141;DHT22;27809;51.864;5.646;2023-06-22T10:19:17;23.30;3.70
42141;DHT22;27809;51.864;5.646;2023-06-22T10:21:42;23.20;4.70
42141;DHT22;27809;51.864;5.646;2023-06-22T10:24:08;23.20;1.00
42141;DHT22;27809;51.864;5.646;2023-06-22T10:26:35;23.20;1.00
42141;DHT22;27809;51.864;5.646;2023-06-22T10:29:02;23.20;1.00
42141;DHT22;27809;51.864;5.646;2023-06-22T10:31:27;23.20;5.20
42141;DHT22;27809;51.864;5.646;2023-06-22T10:33:53;23.20;7.20
42141;DHT22;27809;51.864;5.646;2023-06-22T10:36:19;23.10;6.80
42141;DHT22;27809;51.864;5.646;2023-06-22T10:38:45;23.10;4.50
42141;DHT22;27809;51.864;5.646;2023-06-22T10:41:10;23.10;5.20
42141;DHT22;27809;51.864;5.646;2023-06-22T10:43:36;23.10;11.10
42141;DHT22;27809;51.864;5.646;2023-06-22T10:46:02;23.10;8.80
42141;DHT22;27809;51.864;5.646;2023-06-22T10:48:27;23.10;8.50
42141;DHT22;27809;51.864;5.646;2023-06-22T10:50:53;23.10;9.50
42141;DHT22;27809;51.864;5.646;2023-06-22T10:53:19;23.10;9.10
42141;DHT22;27809;51.864;5.646;2023-06-22T10:55:45;23.10;15.60
42141;DHT22;27809;51.864;5.646;2023-06-22T10:58:10;23.10;19.50
42141;DHT22;27809;51.864;5.646;2023-06-22T11:00:36;23.10;17.90
42141;DHT22;27809;51.864;5.646;2023-06-22T11:03:02;23.20;20.70
42141;DHT22;27809;51.864;5.646;2023-06-22T11:05:27;23.10;21.20
42141;DHT22;27809;51.864;5.646;2023-06-22T11:07:53;23.10;23.30
42141;DHT22;27809;51.864;5.646;2023-06-22T11:10:18;23.00;30.40
42141;DHT22;27809;51.864;5.646;2023-06-22T11:12:44;22.90;38.20
42141;DHT22;27809;51.864;5.646;2023-06-22T11:15:10;22.90;35.40
42141;DHT22;27809;51.864;5.646;2023-06-22T11:17:35;22.90;27.50
42141;DHT22;27809;51.864;5.646;2023-06-22T11:20:01;22.90;38.10
42141;DHT22;27809;51.864;5.646;2023-06-22T11:22:31;22.80;41.50
42141;DHT22;27809;51.864;5.646;2023-06-22T11:24:58;22.80;42.20
42141;DHT22;27809;51.864;5.646;2023-06-22T11:27:24;22.80;29.90
42141;DHT22;27809;51.864;5.646;2023-06-22T11:29:50;22.80;34.90
42141;DHT22;27809;51.864;5.646;2023-06-22T11:32:15;22.80;35.90
42141;DHT22;27809;51.864;5.646;2023-06-22T11:34:40;23.00;29.70
42141;DHT22;27809;51.864;5.646;2023-06-22T11:37:06;23.20;17.60
42141;DHT22;27809;51.864;5.646;2023-06-22T11:39:32;23.10;17.40
42141;DHT22;27809;51.864;5.646;2023-06-22T11:41:57;23.30;9.60
42141;DHT22;27809;51.864;5.646;2023-06-22T11:44:23;23.30;10.70
42141;DHT22;27809;51.864;5.646;2023-06-22T11:46:48;23.30;11.00
42141;DHT22;27809;51.864;5.646;2023-06-22T11:49:13;22.90;26.00
42141;DHT22;27809;51.864;5.646;2023-06-22T11:51:39;22.00;49.60
42141;DHT22;27809;51.864;5.646;2023-06-22T11:54:04;21.70;75.50
42141;DHT22;27809;51.864;5.646;2023-06-22T11:56:30;21.30;92.50
42141;DHT22;27809;51.864;5.646;2023-06-22T11:58:56;21.10;99.90
42141;DHT22;27809;51.864;5.646;2023-06-22T12:01:21;20.90;99.90
42141;DHT22;27809;51.864;5.646;2023-06-22T12:03:47;20.80;99.90
42141;DHT22;27809;51.864;5.646;2023-06-22T12:06:13;20.70;99.90
42141;DHT22;27809;51.864;5.646;2023-06-22T12:08:38;20.70;99.90
42141;DHT22;27809;51.864;5.646;2023-06-22T12:11:04;20.70;99.90
42141;DHT22;27809;51.864;5.646;2023-06-22T12:13:29;20.80;99.90
42141;DHT22;27809;51.864;5.646;2023-06-22T12:15:55;20.60;99.90
42141;DHT22;27809;51.864;5.646;2023-06-22T12:18:20;20.50;99.90
42141;DHT22;27809;51.864;5.646;2023-06-22T12:20:47;20.40;99.90
42141;DHT22;27809;51.864;5.646;2023-06-22T12:23:12;20.30;99.90
42141;DHT22;27809;51.864;5.646;2023-06-22T12:25:39;20.20;99.90
42141;DHT22;27809;51.864;5.646;2023-06-22T12:28:04;20.10;99.90
42141;DHT22;27809;51.864;5.646;2023-06-22T12:30:30;20.00;99.90
42141;DHT22;27809;51.864;5.646;2023-06-22T12:32:56;19.90;99.90
42141;DHT22;27809;51.864;5.646;2023-06-22T12:35:21;20.00;99.90
42141;DHT22;27809;51.864;5.646;2023-06-22T12:37:47;19.90;99.90
42141;DHT22;27809;51.864;5.646;2023-06-22T12:40:12;19.80;99.90
42141;DHT22;27809;51.864;5.646;2023-06-22T12:42:38;19.80;99.90
42141;DHT22;27809;51.864;5.646;2023-06-22T12:45:04;19.70;99.90
42141;DHT22;27809;51.864;5.646;2023-06-22T12:47:31;19.80;99.90
42141;DHT22;27809;51.864;5.646;2023-06-22T12:49:56;19.80;99.90
42141;DHT22;27809;51.864;5.646;2023-06-22T12:52:22;19.70;99.90
42141;DHT22;27809;51.864;5.646;2023-06-22T12:54:48;19.50;99.90
42141;DHT22;27809;51.864;5.646;2023-06-22T12:57:14;19.50;99.90
42141;DHT22;27809;51.864;5.646;2023-06-22T12:59:39;19.50;99.90
42141;DHT22;27809;51.864;5.646;2023-06-22T13:02:05;19.50;99.90
42141;DHT22;27809;51.864;5.646;2023-06-22T13:04:31;19.50;99.90
42141;DHT22;27809;51.864;5.646;2023-06-22T13:06:56;19.50;99.90
42141;DHT22;27809;51.864;5.646;2023-06-22T13:09:22;19.40;99.90
42141;DHT22;27809;51.864;5.646;2023-06-22T13:11:47;19.40;99.90
42141;DHT22;27809;51.864;5.646;2023-06-22T13:14:13;19.50;99.90
42141;DHT22;27809;51.864;5.646;2023-06-22T13:16:38;19.50;99.90
42141;DHT22;27809;51.864;5.646;2023-06-22T13:19:04;19.40;99.90
42141;DHT22;27809;51.864;5.646;2023-06-22T13:21:30;19.20;99.90
42141;DHT22;27809;51.864;5.646;2023-06-22T13:23:55;19.20;99.90
42141;DHT22;27809;51.864;5.646;2023-06-22T13:26:21;19.20;99.90
42141;DHT22;27809;51.864;5.646;2023-06-22T13:28:47;19.20;99.90
42141;DHT22;27809;51.864;5.646;2023-06-22T13:31:13;19.30;99.90
42141;DHT22;27809;51.864;5.646;2023-06-22T13:33:38;19.30;99.90
42141;DHT22;27809;51.864;5.646;2023-06-22T13:36:06;19.30;99.90
42141;DHT22;27809;51.864;5.646;2023-06-22T13:38:31;19.30;99.90
42141;DHT22;27809;51.864;5.646;2023-06-22T13:40:57;19.40;99.90
42141;DHT22;27809;51.864;5.646;2023-06-22T13:43:26;19.40;99.90
42141;DHT22;27809;51.864;5.646;2023-06-22T13:45:52;19.30;99.90
42141;DHT22;27809;51.864;5.646;2023-06-22T13:48:17;19.30;99.90
42141;DHT22;27809;51.864;5.646;2023-06-22T13:50:43;19.20;99.90
42141;DHT22;27809;51.864;5.646;2023-06-22T13:53:09;19.30;99.90
42141;DHT22;27809;51.864;5.646;2023-06-22T13:55:34;19.30;99.90
42141;DHT22;27809;51.864;5.646;2023-06-22T13:58:00;19.20;99.90
42141;DHT22;27809;51.864;5.646;2023-06-22T14:00:25;19.20;99.90
42141;DHT22;27809;51.864;5.646;2023-06-22T14:02:53;19.10;99.90
42141;DHT22;27809;51.864;5.646;2023-06-22T14:05:18;19.10;99.90
42141;DHT22;27809;51.864;5.646;2023-06-22T14:07:44;19.10;99.90
42141;DHT22;27809;51.864;5.646;2023-06-22T14:10:10;19.10;99.90
42141;DHT22;27809;51.864;5.646;2023-06-22T14:12:36;19.10;99.90
42141;DHT22;27809;51.864;5.646;2023-06-22T14:15:01;19.10;99.90
42141;DHT22;27809;51.864;5.646;2023-06-22T14:17:27;19.00;99.90
42141;DHT22;27809;51.864;5.646;2023-06-22T14:19:52;19.00;99.90
42141;DHT22;27809;51.864;5.646;2023-06-22T14:22:19;19.10;99.90
42141;DHT22;27809;51.864;5.646;2023-06-22T14:24:45;19.00;99.90
42141;DHT22;27809;51.864;5.646;2023-06-22T14:27:11;19.00;99.90
42141;DHT22;27809;51.864;5.646;2023-06-22T14:29:36;19.00;99.90
42141;DHT22;27809;51.864;5.646;2023-06-22T14:32:02;19.00;99.90
42141;DHT22;27809;51.864;5.646;2023-06-22T14:34:27;19.00;99.90
42141;DHT22;27809;51.864;5.646;2023-06-22T14:36:53;19.00;99.90
42141;DHT22;27809;51.864;5.646;2023-06-22T14:39:18;19.00;99.90
42141;DHT22;27809;51.864;5.646;2023-06-22T14:41:45;18.90;99.90
42141;DHT22;27809;51.864;5.646;2023-06-22T14:44:11;19.00;99.90
42141;DHT22;27809;51.864;5.646;2023-06-22T14:46:36;19.00;99.90
42141;DHT22;27809;51.864;5.646;2023-06-22T14:49:02;19.00;99.90
42141;DHT22;27809;51.864;5.646;2023-06-22T14:51:27;18.90;99.90
42141;DHT22;27809;51.864;5.646;2023-06-22T14:53:53;18.80;99.90
42141;DHT22;27809;51.864;5.646;2023-06-22T14:56:18;18.80;99.90
42141;DHT22;27809;51.864;5.646;2023-06-22T14:58:45;18.70;99.90
42141;DHT22;27809;51.864;5.646;2023-06-22T15:01:11;18.70;99.90
42141;DHT22;27809;51.864;5.646;2023-06-22T15:03:37;18.70;99.90
42141;DHT22;27809;51.864;5.646;2023-06-22T15:06:03;18.60;99.90
42141;DHT22;27809;51.864;5.646;2023-06-22T15:08:29;18.70;99.90
42141;DHT22;27809;51.864;5.646;2023-06-22T15:10:57;18.70;99.90
42141;DHT22;27809;51.864;5.646;2023-06-22T15:13:23;18.70;99.90
42141;DHT22;27809;51.864;5.646;2023-06-22T15:15:50;18.60;99.90
42141;DHT22;27809;51.864;5.646;2023-06-22T15:18:16;18.60;99.90
42141;DHT22;27809;51.864;5.646;2023-06-22T15:20:42;18.60;99.90
42141;DHT22;27809;51.864;5.646;2023-06-22T15:23:11;18.50;99.90
42141;DHT22;27809;51.864;5.646;2023-06-22T15:25:36;18.50;99.90
42141;DHT22;27809;51.864;5.646;2023-06-22T15:28:02;18.50;99.90
42141;DHT22;27809;51.864;5.646;2023-06-22T15:30:28;18.50;99.90
42141;DHT22;27809;51.864;5.646;2023-06-22T15:32:54;18.50;99.90